Time;durP1;ratioP1;P1;durP2;ratioP2;P2;SDS_P1;SDS_P2;PMS_P1;PMS_P2;Temp;Humidity;BMP_temperature;BMP_pressure;BME280_temperature;BME280_humidity;BME280_pressure;Samples;Min_cycle;Max_cycle;Signal;HPM_P1;HPM_P2
2022/06/18 00:00:48;;;;;;;;;;;15.30;99.90;;;;;;5095039;28;19931;-76
2022/06/18 00:03:14;;;;;;;;;;;15.30;99.90;;;;;;5095012;28;19911;-76
2022/06/18 00:05:41;;;;;;;;;;;15.20;99.90;;;;;;5095231;28;19908;-76
2022/06/18 00:08:10;;;;;;;;;;;15.20;99.90;;;;;;5095397;28;19912;-76
2022/06/18 00:10:36;;;;;;;;;;;15.20;99.90;;;;;;5095072;28;19913;-77
2022/06/18 00:15:58;;;;;;;;;;;15.10;99.90;;;;;;5094931;28;20371;-76
2022/06/18 00:18:24;;;;;;;;;;;15.10;99.90;;;;;;5094659;28;19912;-76
2022/06/18 00:20:50;;;;;;;;;;;15.10;99.90;;;;;;5095631;28;19958;-77
2022/06/18 00:23:15;;;;;;;;;;;15.10;99.90;;;;;;5094590;28;19916;-75
2022/06/18 00:25:43;;;;;;;;;;;15.10;99.90;;;;;;5094861;28;19915;-76
2022/06/18 00:28:20;;;;;;;;;;;15.00;99.90;;;;;;5095126;28;19908;-76
2022/06/18 00:30:46;;;;;;;;;;;15.00;99.90;;;;;;5095038;28;19918;-77
2022/06/18 00:33:12;;;;;;;;;;;15.00;99.90;;;;;;5093249;28;19920;-74
2022/06/18 00:35:38;;;;;;;;;;;14.90;99.90;;;;;;5094823;28;19912;-76
2022/06/18 00:38:04;;;;;;;;;;;14.80;99.90;;;;;;5093571;28;19999;-77
2022/06/18 00:40:31;;;;;;;;;;;14.70;99.90;;;;;;5094043;28;19915;-76
2022/06/18 00:42:59;;;;;;;;;;;14.70;99.90;;;;;;5094601;28;19919;-77
2022/06/18 00:45:27;;;;;;;;;;;14.70;99.90;;;;;;5094131;28;20057;-76
2022/06/18 00:48:06;;;;;;;;;;;14.60;99.90;;;;;;5094447;28;19916;-76
2022/06/18 00:50:32;;;;;;;;;;;14.50;99.90;;;;;;5094092;28;19922;-77
2022/06/18 00:53:02;;;;;;;;;;;14.50;99.90;;;;;;5094323;28;19912;-77
2022/06/18 00:55:30;;;;;;;;;;;14.40;99.90;;;;;;5093937;28;20353;-77
2022/06/18 00:58:01;;;;;;;;;;;14.40;99.90;;;;;;5094418;28;20010;-77
2022/06/18 01:00:35;;;;;;;;;;;14.30;99.90;;;;;;5093782;28;19912;-77
2022/06/18 01:03:01;;;;;;;;;;;14.30;99.90;;;;;;5094048;28;19908;-77
2022/06/18 01:05:33;;;;;;;;;;;14.30;99.90;;;;;;5094125;28;19916;-76
2022/06/18 01:08:00;;;;;;;;;;;14.20;99.90;;;;;;5094320;28;20002;-76
2022/06/18 01:10:28;;;;;;;;;;;14.00;99.90;;;;;;5092763;28;20276;-76
2022/06/18 01:12:55;;;;;;;;;;;14.10;99.90;;;;;;5094284;28;20269;-77
2022/06/18 01:15:21;;;;;;;;;;;14.00;99.90;;;;;;5093767;28;20376;-76
2022/06/18 01:17:48;;;;;;;;;;;14.10;99.90;;;;;;5093918;28;20350;-77
2022/06/18 01:20:14;;;;;;;;;;;14.00;99.90;;;;;;5093854;28;19965;-74
2022/06/18 01:22:39;;;;;;;;;;;14.00;99.90;;;;;;5093477;28;19958;-76
2022/06/18 01:25:06;;;;;;;;;;;14.00;99.90;;;;;;5094058;28;19912;-77
2022/06/18 01:27:36;;;;;;;;;;;14.00;99.90;;;;;;5093669;28;19914;-77
2022/06/18 01:30:06;;;;;;;;;;;14.00;99.90;;;;;;5092475;28;20352;-76
2022/06/18 01:32:31;;;;;;;;;;;14.10;99.90;;;;;;5093130;28;19924;-76
2022/06/18 01:34:57;;;;;;;;;;;14.10;99.90;;;;;;5093734;28;19908;-77
2022/06/18 01:37:22;;;;;;;;;;;14.10;99.90;;;;;;5093241;28;19912;-77
2022/06/18 01:39:48;;;;;;;;;;;14.10;99.90;;;;;;5093753;28;19908;-77
2022/06/18 01:42:14;;;;;;;;;;;14.10;99.90;;;;;;5093310;28;19908;-76
2022/06/18 01:44:43;;;;;;;;;;;14.10;99.90;;;;;;5092845;28;19908;-76
2022/06/18 01:47:12;;;;;;;;;;;14.00;99.90;;;;;;5092455;28;20288;-77
2022/06/18 01:49:41;;;;;;;;;;;14.00;99.90;;;;;;5092639;28;19961;-77
2022/06/18 01:52:08;;;;;;;;;;;13.90;99.90;;;;;;5093585;28;19912;-77
2022/06/18 01:54:48;;;;;;;;;;;13.90;99.90;;;;;;5092888;28;19915;-77
2022/06/18 01:57:16;;;;;;;;;;;14.00;99.90;;;;;;5092103;28;20320;-77
2022/06/18 01:59:47;;;;;;;;;;;13.90;99.90;;;;;;5092753;28;19913;-77
2022/06/18 02:02:13;;;;;;;;;;;13.80;99.90;;;;;;5093103;28;19908;-77
2022/06/18 02:04:39;;;;;;;;;;;13.70;99.90;;;;;;5092790;28;19908;-76
2022/06/18 02:07:06;;;;;;;;;;;13.70;99.90;;;;;;5093336;28;19995;-76
2022/06/18 02:09:37;;;;;;;;;;;13.70;99.90;;;;;;5092503;28;19944;-76
2022/06/18 02:12:05;;;;;;;;;;;13.70;99.90;;;;;;5093081;28;19908;-76
2022/06/18 02:14:32;;;;;;;;;;;13.70;99.90;;;;;;5092658;28;19908;-76
2022/06/18 02:16:58;;;;;;;;;;;13.70;99.90;;;;;;5093142;28;19912;-76
2022/06/18 02:19:24;;;;;;;;;;;13.70;99.90;;;;;;5092549;28;19919;-75
2022/06/18 02:21:52;;;;;;;;;;;13.70;99.90;;;;;;5091930;28;19908;-76
2022/06/18 02:24:18;;;;;;;;;;;13.70;99.90;;;;;;5093381;28;19908;-75
2022/06/18 02:26:45;;;;;;;;;;;13.60;99.90;;;;;;5092555;28;19908;-77
2022/06/18 02:29:16;;;;;;;;;;;13.60;99.90;;;;;;5093142;28;20002;-77
2022/06/18 02:31:45;;;;;;;;;;;13.60;99.90;;;;;;5091980;28;19908;-77
2022/06/18 02:34:13;;;;;;;;;;;13.60;99.90;;;;;;5092608;28;19974;-76
2022/06/18 02:36:40;;;;;;;;;;;13.60;99.90;;;;;;5092476;28;19995;-76
2022/06/18 02:39:13;;;;;;;;;;;13.60;99.90;;;;;;5092880;28;19916;-77
2022/06/18 02:41:40;;;;;;;;;;;13.40;99.90;;;;;;5092200;28;19970;-76
2022/06/18 02:44:06;;;;;;;;;;;13.40;99.90;;;;;;5092909;28;19991;-76
2022/06/18 02:46:32;;;;;;;;;;;13.30;99.90;;;;;;5092832;28;20344;-77
2022/06/18 02:49:00;;;;;;;;;;;13.20;99.90;;;;;;5093191;28;20004;-77
2022/06/18 02:51:26;;;;;;;;;;;13.20;99.90;;;;;;5092319;28;20365;-76
2022/06/18 02:53:52;;;;;;;;;;;13.20;99.90;;;;;;5091607;28;19962;-76
2022/06/18 02:56:17;;;;;;;;;;;13.20;99.90;;;;;;5091422;28;19918;-77
2022/06/18 02:58:45;;;;;;;;;;;13.10;99.90;;;;;;5092309;28;19916;-77
2022/06/18 03:01:13;;;;;;;;;;;13.10;99.90;;;;;;5092519;28;19908;-76
2022/06/18 03:03:41;;;;;;;;;;;13.00;99.90;;;;;;5092099;28;19908;-76
2022/06/18 03:06:07;;;;;;;;;;;13.00;99.90;;;;;;5092457;28;20365;-76
2022/06/18 03:08:33;;;;;;;;;;;12.80;99.90;;;;;;5092129;28;19908;-75
2022/06/18 03:13:44;;;;;;;;;;;12.80;99.90;;;;;;5092046;28;19911;-76
2022/06/18 03:16:10;;;;;;;;;;;12.90;99.90;;;;;;5092328;28;19958;-76
2022/06/18 03:18:37;;;;;;;;;;;12.80;99.90;;;;;;5092008;28;20005;-76
2022/06/18 03:21:02;;;;;;;;;;;12.80;99.90;;;;;;5092607;28;20368;-76
2022/06/18 03:23:28;;;;;;;;;;;12.80;99.90;;;;;;5091765;28;19947;-76
2022/06/18 03:25:54;;;;;;;;;;;12.70;99.90;;;;;;5092539;28;19959;-77
2022/06/18 03:28:21;;;;;;;;;;;12.70;99.90;;;;;;5092534;28;20361;-76
2022/06/18 03:30:47;;;;;;;;;;;12.60;99.90;;;;;;5091962;28;19954;-77
2022/06/18 03:33:12;;;;;;;;;;;12.60;99.90;;;;;;5093145;28;19921;-76
2022/06/18 03:35:39;;;;;;;;;;;12.50;99.90;;;;;;5095423;28;19912;-77
2022/06/18 03:38:05;;;;;;;;;;;12.60;99.90;;;;;;5097019;28;19957;-76
2022/06/18 03:40:31;;;;;;;;;;;12.50;99.90;;;;;;5095825;28;20327;-76
2022/06/18 03:42:56;;;;;;;;;;;12.50;99.90;;;;;;5096234;28;19908;-76
2022/06/18 03:45:22;;;;;;;;;;;12.40;99.90;;;;;;5094794;28;19934;-76
2022/06/18 03:47:48;;;;;;;;;;;12.30;99.90;;;;;;5095337;28;20380;-76
2022/06/18 03:50:17;;;;;;;;;;;12.30;99.90;;;;;;5095585;28;20061;-76
2022/06/18 03:52:42;;;;;;;;;;;12.20;99.90;;;;;;5095279;28;19915;-76
2022/06/18 03:55:11;;;;;;;;;;;12.20;99.90;;;;;;5095681;28;20277;-76
2022/06/18 03:57:37;;;;;;;;;;;12.10;99.90;;;;;;5094850;28;19912;-76
2022/06/18 04:00:07;;;;;;;;;;;12.10;99.90;;;;;;5095657;28;19915;-76
2022/06/18 04:02:33;;;;;;;;;;;12.10;99.90;;;;;;5094944;28;19912;-76
2022/06/18 04:04:58;;;;;;;;;;;12.00;99.90;;;;;;5095716;28;19966;-77
2022/06/18 04:07:24;;;;;;;;;;;12.00;99.90;;;;;;5095585;28;19915;-77
2022/06/18 04:09:52;;;;;;;;;;;12.00;99.90;;;;;;5094918;28;19908;-76
2022/06/18 04:12:17;;;;;;;;;;;12.00;99.90;;;;;;5095489;28;19908;-76
2022/06/18 04:14:43;;;;;;;;;;;11.90;99.90;;;;;;5094506;28;19908;-76
2022/06/18 04:17:13;;;;;;;;;;;11.90;99.90;;;;;;5095022;28;20006;-76
2022/06/18 04:19:38;;;;;;;;;;;11.90;99.90;;;;;;5094756;28;20020;-76
2022/06/18 04:22:04;;;;;;;;;;;11.90;99.90;;;;;;5094028;28;20396;-76
2022/06/18 04:24:30;;;;;;;;;;;12.00;99.90;;;;;;5094618;28;20381;-76
2022/06/18 04:26:55;;;;;;;;;;;12.00;99.90;;;;;;5095737;28;19926;-77
2022/06/18 04:29:21;;;;;;;;;;;12.00;99.90;;;;;;5097434;28;19915;-77
2022/06/18 04:31:47;;;;;;;;;;;12.00;99.90;;;;;;5094437;28;20844;-76
2022/06/18 04:34:13;;;;;;;;;;;12.00;99.90;;;;;;5095003;28;19966;-77
2022/06/18 04:36:39;;;;;;;;;;;12.10;99.90;;;;;;5094434;28;19912;-77
2022/06/18 04:39:05;;;;;;;;;;;12.20;99.90;;;;;;5095050;28;19999;-77
2022/06/18 04:41:31;;;;;;;;;;;12.20;99.90;;;;;;5094574;28;20422;-76
2022/06/18 04:43:58;;;;;;;;;;;12.20;99.90;;;;;;5094720;28;20000;-77
2022/06/18 04:46:23;;;;;;;;;;;12.20;99.90;;;;;;5093837;28;19950;-77
2022/06/18 04:48:49;;;;;;;;;;;12.20;99.90;;;;;;5093887;28;19904;-77
2022/06/18 04:51:15;;;;;;;;;;;12.20;99.90;;;;;;5094395;28;19908;-76
2022/06/18 04:53:41;;;;;;;;;;;12.20;99.90;;;;;;5094079;28;19908;-77
2022/06/18 04:56:07;;;;;;;;;;;12.20;99.90;;;;;;5094680;28;20254;-76
2022/06/18 04:58:32;;;;;;;;;;;12.30;99.90;;;;;;5093973;28;19912;-76
2022/06/18 05:00:58;;;;;;;;;;;12.40;99.90;;;;;;5094781;28;19908;-77
2022/06/18 05:03:24;;;;;;;;;;;12.50;99.90;;;;;;5093157;28;19915;-77
2022/06/18 05:05:49;;;;;;;;;;;12.60;99.90;;;;;;5094067;28;19909;-77
2022/06/18 05:08:15;;;;;;;;;;;12.80;99.90;;;;;;5094012;28;19919;-77
2022/06/18 05:10:41;;;;;;;;;;;13.00;99.90;;;;;;5092395;28;19908;-77
2022/06/18 05:13:06;;;;;;;;;;;13.00;99.90;;;;;;5094230;28;19959;-77
2022/06/18 05:15:33;;;;;;;;;;;13.00;99.90;;;;;;5093551;28;19919;-75
2022/06/18 05:17:59;;;;;;;;;;;13.00;99.90;;;;;;5094146;28;20007;-77
2022/06/18 05:20:24;;;;;;;;;;;13.10;99.90;;;;;;5093816;28;20430;-77
2022/06/18 05:22:50;;;;;;;;;;;13.10;99.90;;;;;;5093457;28;19908;-77
2022/06/18 05:25:16;;;;;;;;;;;13.10;99.90;;;;;;5093769;28;19912;-76
2022/06/18 05:27:42;;;;;;;;;;;13.20;99.90;;;;;;5093434;28;19908;-77
2022/06/18 05:30:10;;;;;;;;;;;13.30;99.90;;;;;;5093717;28;19908;-77
2022/06/18 05:32:35;;;;;;;;;;;13.20;99.90;;;;;;5093076;28;19935;-77
2022/06/18 05:35:01;;;;;;;;;;;13.30;99.90;;;;;;5093649;28;19912;-77
2022/06/18 05:37:29;;;;;;;;;;;13.40;99.90;;;;;;5094125;28;19912;-77
2022/06/18 05:39:54;;;;;;;;;;;13.40;99.90;;;;;;5093152;28;19994;-77
2022/06/18 05:42:21;;;;;;;;;;;13.40;99.90;;;;;;5093704;28;20387;-76
2022/06/18 05:44:47;;;;;;;;;;;13.40;99.90;;;;;;5092666;28;19915;-77
2022/06/18 05:47:14;;;;;;;;;;;13.40;99.90;;;;;;5093612;28;19908;-77
2022/06/18 05:49:39;;;;;;;;;;;13.50;99.90;;;;;;5093004;28;19912;-77
2022/06/18 05:52:05;;;;;;;;;;;13.50;99.90;;;;;;5093596;28;19917;-77
2022/06/18 05:54:31;;;;;;;;;;;13.70;99.90;;;;;;5093562;28;20353;-77
2022/06/18 05:56:56;;;;;;;;;;;13.80;99.90;;;;;;5092254;28;19919;-78
2022/06/18 05:59:22;;;;;;;;;;;14.00;99.90;;;;;;5093534;28;19978;-77
2022/06/18 06:01:48;;;;;;;;;;;14.00;99.90;;;;;;5092846;28;20250;-77
2022/06/18 06:04:16;;;;;;;;;;;14.00;99.90;;;;;;5093332;28;19908;-77
2022/06/18 06:06:42;;;;;;;;;;;14.00;99.90;;;;;;5092336;28;19916;-77
2022/06/18 06:09:09;;;;;;;;;;;14.10;99.90;;;;;;5093128;28;20269;-77
2022/06/18 06:11:37;;;;;;;;;;;14.20;99.90;;;;;;5092691;28;19962;-75
2022/06/18 06:14:03;;;;;;;;;;;14.30;99.90;;;;;;5093055;28;19977;-77
2022/06/18 06:16:29;;;;;;;;;;;14.20;99.90;;;;;;5093022;28;20353;-77
2022/06/18 06:18:54;;;;;;;;;;;14.10;99.90;;;;;;5092297;28;19922;-77
2022/06/18 06:21:20;;;;;;;;;;;14.20;99.90;;;;;;5093153;28;19962;-77
2022/06/18 06:23:45;;;;;;;;;;;14.20;99.90;;;;;;5092588;28;19919;-77
2022/06/18 06:26:19;;;;;;;;;;;14.20;99.90;;;;;;5093266;28;19934;-77
2022/06/18 06:28:45;;;;;;;;;;;14.20;99.90;;;;;;5092417;28;19908;-77
2022/06/18 06:31:10;;;;;;;;;;;14.40;99.90;;;;;;5092806;28;20333;-78
2022/06/18 06:33:36;;;;;;;;;;;14.60;99.90;;;;;;5092923;28;19986;-75
2022/06/18 06:36:02;;;;;;;;;;;14.60;99.90;;;;;;5092393;28;19912;-78
2022/06/18 06:38:27;;;;;;;;;;;14.60;99.90;;;;;;5092978;28;20312;-78
2022/06/18 06:40:54;;;;;;;;;;;14.60;99.90;;;;;;5092153;28;19998;-77
2022/06/18 06:43:20;;;;;;;;;;;14.50;99.90;;;;;;5093125;28;19935;-78
2022/06/18 06:45:46;;;;;;;;;;;14.40;99.90;;;;;;5092161;28;20438;-77
2022/06/18 06:48:11;;;;;;;;;;;14.20;99.90;;;;;;5092537;28;19922;-78
2022/06/18 06:50:37;;;;;;;;;;;14.10;99.90;;;;;;5092571;28;19999;-75
2022/06/18 06:53:02;;;;;;;;;;;14.20;99.90;;;;;;5092791;28;20346;-78
2022/06/18 06:58:16;;;;;;;;;;;14.30;99.90;;;;;;5092823;28;19919;-77
2022/06/18 07:00:43;;;;;;;;;;;14.30;99.90;;;;;;5092866;28;19998;-77
2022/06/18 07:03:10;;;;;;;;;;;14.30;99.90;;;;;;5094114;28;19916;-76
2022/06/18 07:05:36;;;;;;;;;;;14.30;99.90;;;;;;5092534;28;19918;-78
2022/06/18 07:08:01;;;;;;;;;;;14.20;99.90;;;;;;5092448;28;19908;-78
2022/06/18 07:10:27;;;;;;;;;;;14.20;99.90;;;;;;5096805;28;19916;-78
2022/06/18 07:12:52;;;;;;;;;;;14.30;99.90;;;;;;5095817;28;19948;-77
2022/06/18 07:15:19;;;;;;;;;;;14.30;99.90;;;;;;5096258;28;19912;-78
2022/06/18 07:17:44;;;;;;;;;;;14.40;99.90;;;;;;5096397;28;19998;-77
2022/06/18 07:20:13;;;;;;;;;;;14.40;99.90;;;;;;5096427;28;19950;-77
2022/06/18 07:22:38;;;;;;;;;;;14.40;99.90;;;;;;5096196;28;19908;-77
2022/06/18 07:25:05;;;;;;;;;;;14.20;99.90;;;;;;5095636;28;19908;-78
2022/06/18 07:27:32;;;;;;;;;;;14.20;99.90;;;;;;5096228;28;19908;-78
2022/06/18 07:29:58;;;;;;;;;;;14.30;99.90;;;;;;5095169;28;20238;-77
2022/06/18 07:32:24;;;;;;;;;;;14.30;99.90;;;;;;5095538;28;19920;-78
2022/06/18 07:34:49;;;;;;;;;;;14.50;99.90;;;;;;5095525;28;19991;-77
2022/06/18 07:37:15;;;;;;;;;;;14.60;99.90;;;;;;5095664;28;19916;-77
2022/06/18 07:39:41;;;;;;;;;;;14.80;99.90;;;;;;5095955;28;19912;-74
2022/06/18 07:42:06;;;;;;;;;;;15.20;99.90;;;;;;5095618;28;19947;-77
2022/06/18 07:44:32;;;;;;;;;;;15.40;99.90;;;;;;5095722;28;19908;-77
2022/06/18 07:46:58;;;;;;;;;;;15.50;99.90;;;;;;5095596;28;20273;-78
2022/06/18 07:49:24;;;;;;;;;;;15.80;99.90;;;;;;5095751;28;19908;-77
2022/06/18 07:51:50;;;;;;;;;;;16.10;99.90;;;;;;5095279;28;19909;-77
2022/06/18 07:54:17;;;;;;;;;;;16.20;99.90;;;;;;5095437;28;19957;-77
2022/06/18 07:56:42;;;;;;;;;;;16.40;99.90;;;;;;5095446;28;19912;-75
2022/06/18 07:59:08;;;;;;;;;;;16.60;99.90;;;;;;5095755;28;20334;-78
2022/06/18 08:01:34;;;;;;;;;;;16.70;99.90;;;;;;5094295;28;19908;-77
2022/06/18 08:04:00;;;;;;;;;;;16.90;99.90;;;;;;5094539;28;19912;-79
2022/06/18 08:06:25;;;;;;;;;;;17.00;99.90;;;;;;5094158;28;19919;-79
2022/06/18 08:08:51;;;;;;;;;;;17.00;99.90;;;;;;5094515;28;19974;-80
2022/06/18 08:11:18;;;;;;;;;;;17.20;99.90;;;;;;5095059;28;20005;-80
2022/06/18 08:13:44;;;;;;;;;;;17.40;99.90;;;;;;5095101;28;19908;-76
2022/06/18 08:16:12;;;;;;;;;;;17.50;99.90;;;;;;5094985;28;19993;-78
2022/06/18 08:18:38;;;;;;;;;;;17.70;99.90;;;;;;5093722;28;20367;-79
2022/06/18 08:21:06;;;;;;;;;;;17.70;99.90;;;;;;5094401;28;19919;-80
2022/06/18 08:23:33;;;;;;;;;;;17.70;99.90;;;;;;5102707;28;19935;-80
2022/06/18 08:25:59;;;;;;;;;;;17.70;99.90;;;;;;5107343;28;20268;-80
2022/06/18 08:28:25;;;;;;;;;;;17.70;99.90;;;;;;5096732;28;19908;-80
2022/06/18 08:30:50;;;;;;;;;;;17.50;99.90;;;;;;5094711;28;19908;-80
2022/06/18 08:33:17;;;;;;;;;;;17.30;99.90;;;;;;5094916;28;19925;-79
2022/06/18 08:35:43;;;;;;;;;;;17.10;99.90;;;;;;5094727;28;19912;-80
2022/06/18 08:38:09;;;;;;;;;;;17.20;99.90;;;;;;5093072;28;19913;-80
2022/06/18 08:40:46;;;;;;;;;;;17.30;99.90;;;;;;5095072;28;20053;-81
2022/06/18 08:43:30;;;;;;;;;;;17.30;99.90;;;;;;5094590;28;19909;-81
2022/06/18 08:46:11;;;;;;;;;;;17.30;99.90;;;;;;5093960;28;20361;-80
2022/06/18 08:48:36;;;;;;;;;;;17.50;99.90;;;;;;5094735;28;19912;-81
2022/06/18 08:51:04;;;;;;;;;;;17.40;99.90;;;;;;5093726;28;20383;-80
2022/06/18 08:53:53;;;;;;;;;;;17.60;99.90;;;;;;5093383;28;20273;-81
2022/06/18 08:56:33;;;;;;;;;;;17.70;99.90;;;;;;5093827;28;19912;-80
2022/06/18 08:59:09;;;;;;;;;;;17.80;99.90;;;;;;5093877;28;19912;-80
2022/06/18 09:01:49;;;;;;;;;;;17.80;99.90;;;;;;5094554;28;19915;-80
2022/06/18 09:04:33;;;;;;;;;;;17.70;99.90;;;;;;5094628;28;19920;-80
2022/06/18 09:07:17;;;;;;;;;;;17.40;99.90;;;;;;5093648;28;19961;-79
2022/06/18 09:09:43;;;;;;;;;;;17.10;99.90;;;;;;5094095;28;19961;-80
2022/06/18 09:12:14;;;;;;;;;;;17.20;99.90;;;;;;5092511;28;20371;-80
2022/06/18 09:14:43;;;;;;;;;;;17.10;99.90;;;;;;5094119;28;19991;-79
2022/06/18 09:17:29;;;;;;;;;;;17.00;99.90;;;;;;5093216;28;19972;-80
2022/06/18 09:20:07;;;;;;;;;;;17.00;99.90;;;;;;5093476;28;19920;-80
2022/06/18 09:22:34;;;;;;;;;;;16.90;99.90;;;;;;5094169;28;19953;-80
2022/06/18 09:25:08;;;;;;;;;;;16.90;99.90;;;;;;5093694;28;19908;-81
2022/06/18 09:27:37;;;;;;;;;;;16.90;99.90;;;;;;5092896;28;19957;-80
2022/06/18 09:30:08;;;;;;;;;;;16.80;99.90;;;;;;5093329;28;19912;-80
2022/06/18 09:32:42;;;;;;;;;;;16.70;99.90;;;;;;5093239;28;19920;-80
2022/06/18 09:35:14;;;;;;;;;;;16.80;99.90;;;;;;5093272;28;19912;-80
2022/06/18 09:37:40;;;;;;;;;;;16.80;99.90;;;;;;5094123;28;19916;-80
2022/06/18 09:40:10;;;;;;;;;;;16.80;99.90;;;;;;5093171;28;20265;-79
2022/06/18 09:42:35;;;;;;;;;;;16.80;99.90;;;;;;5093432;28;19931;-80
2022/06/18 09:45:19;;;;;;;;;;;16.80;99.90;;;;;;5093685;28;20356;-80
2022/06/18 09:47:47;;;;;;;;;;;16.70;99.90;;;;;;5093729;28;19908;-79
2022/06/18 09:50:15;;;;;;;;;;;16.60;99.90;;;;;;5092928;28;19908;-79
2022/06/18 09:52:41;;;;;;;;;;;16.60;99.90;;;;;;5093526;28;19915;-80
2022/06/18 09:55:18;;;;;;;;;;;16.60;99.90;;;;;;5125748;27;19912;-79
2022/06/18 09:57:47;;;;;;;;;;;16.50;99.90;;;;;;5093560;28;19916;-79
2022/06/18 10:00:18;;;;;;;;;;;16.50;99.90;;;;;;5092502;28;19908;-79
2022/06/18 10:03:04;;;;;;;;;;;16.40;99.90;;;;;;5093340;28;19908;-80
2022/06/18 10:08:23;;;;;;;;;;;16.50;99.90;;;;;;5093252;28;19916;-79
2022/06/18 10:10:52;;;;;;;;;;;16.50;99.90;;;;;;5093195;28;19908;-79
2022/06/18 10:13:22;;;;;;;;;;;16.50;99.90;;;;;;5093097;28;19908;-79
2022/06/18 10:15:47;;;;;;;;;;;16.40;99.90;;;;;;5092858;28;20011;-79
2022/06/18 10:18:30;;;;;;;;;;;16.40;99.90;;;;;;5092572;28;20754;-79
2022/06/18 10:20:59;;;;;;;;;;;16.50;99.90;;;;;;5092581;28;20373;-79
2022/06/18 10:23:29;;;;;;;;;;;16.60;99.90;;;;;;5093023;28;19908;-79
2022/06/18 10:26:01;;;;;;;;;;;16.70;99.90;;;;;;5092463;28;20379;-78
2022/06/18 10:28:35;;;;;;;;;;;16.70;99.90;;;;;;5092997;28;19934;-79
2022/06/18 10:31:16;;;;;;;;;;;16.70;99.90;;;;;;5092568;28;19912;-79
2022/06/18 10:33:42;;;;;;;;;;;16.70;99.90;;;;;;5092980;28;20365;-79
2022/06/18 10:36:08;;;;;;;;;;;16.70;99.90;;;;;;5092476;28;19912;-78
2022/06/18 10:38:43;;;;;;;;;;;16.70;99.90;;;;;;5092929;28;19916;-79
2022/06/18 10:41:30;;;;;;;;;;;16.70;99.90;;;;;;5092373;28;19908;-80
2022/06/18 10:44:14;;;;;;;;;;;16.70;99.90;;;;;;5094424;28;19927;-77
2022/06/18 10:46:40;;;;;;;;;;;16.60;99.90;;;;;;5096940;28;19931;-80
2022/06/18 10:49:06;;;;;;;;;;;16.50;99.90;;;;;;5096124;28;20361;-80
2022/06/18 10:51:46;;;;;;;;;;;16.50;99.90;;;;;;5102270;28;19987;-79
2022/06/18 10:54:11;;;;;;;;;;;16.60;99.90;;;;;;5106504;28;19915;-78
2022/06/18 10:56:48;;;;;;;;;;;16.50;99.90;;;;;;5097347;28;19912;-79
2022/06/18 10:59:14;;;;;;;;;;;16.40;99.90;;;;;;5096669;28;20785;-80
2022/06/18 11:01:47;;;;;;;;;;;16.30;99.90;;;;;;5096852;28;19994;-79
2022/06/18 11:04:20;;;;;;;;;;;16.30;99.90;;;;;;5096150;28;19931;-79
2022/06/18 11:06:46;;;;;;;;;;;16.30;99.90;;;;;;5096194;28;19912;-79
2022/06/18 11:09:19;;;;;;;;;;;16.40;99.90;;;;;;5094784;28;19908;-79
2022/06/18 11:11:51;;;;;;;;;;;16.50;99.90;;;;;;5096952;28;19912;-78
2022/06/18 11:14:18;;;;;;;;;;;16.70;99.90;;;;;;5096014;28;19908;-79
2022/06/18 11:16:45;;;;;;;;;;;16.70;99.90;;;;;;5096275;28;20062;-79
2022/06/18 11:19:18;;;;;;;;;;;16.70;99.90;;;;;;5095814;28;20281;-78
2022/06/18 11:21:44;;;;;;;;;;;16.60;99.90;;;;;;5096384;28;19915;-79
2022/06/18 11:24:13;;;;;;;;;;;16.50;99.90;;;;;;5095648;28;19908;-80
2022/06/18 11:26:41;;;;;;;;;;;16.50;99.90;;;;;;5095997;28;19912;-79
2022/06/18 11:29:32;;;;;;;;;;;16.30;99.90;;;;;;5095547;28;19912;-78
2022/06/18 11:32:00;;;;;;;;;;;16.20;99.90;;;;;;5094237;28;19923;-76
2022/06/18 11:34:28;;;;;;;;;;;16.10;99.90;;;;;;5095608;28;19931;-79
2022/06/18 11:36:55;;;;;;;;;;;16.00;99.90;;;;;;5095096;28;20385;-78
2022/06/18 11:39:24;;;;;;;;;;;16.00;99.90;;;;;;5095409;28;20391;-77
2022/06/18 11:41:52;;;;;;;;;;;15.90;99.90;;;;;;5095448;28;20409;-77
2022/06/18 11:44:22;;;;;;;;;;;15.80;99.90;;;;;;5095038;28;20560;-79
2022/06/18 11:47:02;;;;;;;;;;;15.80;99.90;;;;;;5094863;28;19915;-78
2022/06/18 11:49:38;;;;;;;;;;;15.70;99.90;;;;;;5095014;28;19915;-79
2022/06/18 11:52:14;;;;;;;;;;;15.80;99.90;;;;;;5094410;28;19962;-79
2022/06/18 11:54:52;;;;;;;;;;;15.90;99.90;;;;;;5094513;28;20007;-79
2022/06/18 11:57:30;;;;;;;;;;;15.80;99.90;;;;;;5094117;28;19916;-79
2022/06/18 12:00:10;;;;;;;;;;;16.00;99.90;;;;;;5094995;28;20376;-79
2022/06/18 12:02:36;;;;;;;;;;;16.10;99.90;;;;;;5094822;28;19912;-79
2022/06/18 12:05:05;;;;;;;;;;;16.20;99.90;;;;;;5094041;28;19908;-78
2022/06/18 12:07:35;;;;;;;;;;;16.10;99.90;;;;;;5094557;28;19912;-78
2022/06/18 12:10:01;;;;;;;;;;;16.20;99.90;;;;;;5094552;28;20337;-78
2022/06/18 12:12:40;;;;;;;;;;;16.20;99.90;;;;;;5094437;28;19916;-79
2022/06/18 12:15:10;;;;;;;;;;;16.20;99.90;;;;;;5094009;28;20344;-79
2022/06/18 12:17:39;;;;;;;;;;;16.30;99.90;;;;;;5094473;28;19912;-79
2022/06/18 12:20:23;;;;;;;;;;;16.40;99.90;;;;;;5094141;28;19913;-78
2022/06/18 12:23:09;;;;;;;;;;;16.40;99.90;;;;;;5094623;28;20307;-79
2022/06/18 12:25:50;;;;;;;;;;;16.50;99.90;;;;;;5094195;27;19908;-79
2022/06/18 12:28:24;;;;;;;;;;;16.60;99.90;;;;;;5093834;28;19954;-79
2022/06/18 12:30:54;;;;;;;;;;;16.80;99.90;;;;;;5094479;28;19934;-79
2022/06/18 12:33:22;;;;;;;;;;;17.00;99.90;;;;;;5092965;28;19924;-79
2022/06/18 12:35:48;;;;;;;;;;;17.00;99.90;;;;;;5094145;28;19916;-78
2022/06/18 12:38:26;;;;;;;;;;;17.00;99.90;;;;;;5093369;28;19916;-78
2022/06/18 12:40:54;;;;;;;;;;;16.80;99.90;;;;;;5094148;28;19908;-79
2022/06/18 12:43:30;;;;;;;;;;;16.80;99.90;;;;;;5093384;28;19960;-80
2022/06/18 12:46:03;;;;;;;;;;;16.90;99.90;;;;;;5092865;28;20354;-79
2022/06/18 12:48:47;;;;;;;;;;;16.90;99.90;;;;;;5093053;28;19946;-79
2022/06/18 12:51:13;;;;;;;;;;;17.10;99.90;;;;;;5073088;28;19920;-79
2022/06/18 12:53:45;;;;;;;;;;;17.30;99.90;;;;;;5086820;28;19912;-80
2022/06/18 12:56:33;;;;;;;;;;;17.30;99.90;;;;;;5093280;28;19927;-80
2022/06/18 12:59:07;;;;;;;;;;;17.40;99.90;;;;;;5093912;28;19919;-75
2022/06/18 13:01:44;;;;;;;;;;;17.30;99.90;;;;;;5094366;28;19908;-80
2022/06/18 13:04:16;;;;;;;;;;;17.20;99.90;;;;;;5092514;28;19909;-79
2022/06/18 13:07:11;;;;;;;;;;;17.20;99.90;;;;;;5091772;28;19909;-79
2022/06/18 13:09:52;;;;;;;;;;;17.20;99.90;;;;;;5074176;28;20351;-80
2022/06/18 13:12:28;;;;;;;;;;;17.30;99.90;;;;;;5093371;28;20293;-79
2022/06/18 13:15:12;;;;;;;;;;;17.40;99.90;;;;;;5094126;28;19931;-80
2022/06/18 13:17:44;;;;;;;;;;;17.40;99.90;;;;;;5095478;28;19960;-80
2022/06/18 13:20:13;;;;;;;;;;;17.50;99.90;;;;;;5103979;28;19908;-79
2022/06/18 13:22:39;;;;;;;;;;;17.30;99.90;;;;;;5103304;28;20033;-79
2022/06/18 13:30:59;;;;;;;;;;;17.50;99.90;;;;;;5093848;28;20010;-79
2022/06/18 13:33:44;;;;;;;;;;;17.50;99.90;;;;;;5091625;28;19968;-79
2022/06/18 13:36:15;;;;;;;;;;;17.70;99.90;;;;;;5092898;28;19912;-79
2022/06/18 13:38:47;;;;;;;;;;;17.80;99.90;;;;;;5093875;28;19912;-80
2022/06/18 13:41:22;;;;;;;;;;;17.80;99.90;;;;;;5093378;28;19999;-79
2022/06/18 13:43:58;;;;;;;;;;;17.80;99.90;;;;;;5093670;28;20062;-80
2022/06/18 13:46:31;;;;;;;;;;;17.80;99.90;;;;;;5093104;28;19908;-79
2022/06/18 13:48:57;;;;;;;;;;;17.70;99.90;;;;;;5093354;28;20351;-79
2022/06/18 13:51:27;;;;;;;;;;;17.80;99.90;;;;;;5092760;28;19931;-79
2022/06/18 13:54:02;;;;;;;;;;;17.70;99.90;;;;;;5093316;28;19908;-78
2022/06/18 13:56:28;;;;;;;;;;;17.70;99.90;;;;;;5092995;28;19934;-79
2022/06/18 13:58:57;;;;;;;;;;;17.70;99.90;;;;;;5093113;28;20352;-79
2022/06/18 14:01:24;;;;;;;;;;;17.70;99.90;;;;;;5092767;28;19963;-79
2022/06/18 14:04:12;;;;;;;;;;;17.80;99.90;;;;;;5093382;28;20002;-79
2022/06/18 14:06:45;;;;;;;;;;;17.80;99.90;;;;;;5092973;28;19908;-79
2022/06/18 14:09:16;;;;;;;;;;;18.00;99.90;;;;;;5092306;28;20307;-78
2022/06/18 14:11:44;;;;;;;;;;;18.10;99.90;;;;;;5093132;28;19908;-79
2022/06/18 14:14:11;;;;;;;;;;;18.20;99.90;;;;;;5092410;28;20353;-78
2022/06/18 14:16:56;;;;;;;;;;;18.20;99.90;;;;;;5093056;28;19919;-79
2022/06/18 14:19:22;;;;;;;;;;;18.20;99.90;;;;;;5092671;28;19957;-79
2022/06/18 14:21:50;;;;;;;;;;;18.00;99.90;;;;;;5093253;28;19945;-79
2022/06/18 14:24:16;;;;;;;;;;;18.00;99.90;;;;;;5092238;28;20053;-79
2022/06/18 14:26:41;;;;;;;;;;;18.00;99.90;;;;;;5092214;28;19966;-79
2022/06/18 14:29:07;;;;;;;;;;;17.90;99.90;;;;;;5092388;28;19908;-76
2022/06/18 14:31:37;;;;;;;;;;;17.80;99.90;;;;;;5093080;28;19962;-78
2022/06/18 14:34:12;;;;;;;;;;;17.70;99.90;;;;;;5092605;28;19920;-79
2022/06/18 14:36:40;;;;;;;;;;;17.60;99.90;;;;;;5092825;28;19935;-79
2022/06/18 14:39:24;;;;;;;;;;;17.50;99.90;;;;;;5092506;28;20381;-76
2022/06/18 14:41:55;;;;;;;;;;;17.60;99.90;;;;;;5093028;28;19908;-79
2022/06/18 14:44:33;;;;;;;;;;;17.60;99.90;;;;;;5090822;28;19999;-78